DEOHL EDLP-EDDK
Flight info
| Callsign | DEOHL |
|---|---|
| Flight time | N/A |
| Altitude | |
| Route | |
| Aircraft | TBM930 |
Departure
| Time | 2026-05-06 15:54 |
|---|---|
| Airport | Paderborn Lippstadt Airport (EDLP) |
Arrival
| Time | N/A |
|---|---|
| Airport | Cologne Bonn Airport (EDDK) |
| Time | Latitude | Longitude | Altitude | Speed | Heading |
|---|---|---|---|---|---|
| 2026-05-06 15:47 | 51.60987 | 8.61545 | 703 ft | 0 kts | 320° |
| 2026-05-06 15:49 | 51.60988 | 8.61537 | 699 ft | 1 kts | 254° |
| 2026-05-06 15:49 | 51.60982 | 8.61523 | 697 ft | 0 kts | 243° |
| 2026-05-06 15:50 | 51.60985 | 8.61503 | 701 ft | 4 kts | 310° |
| 2026-05-06 15:50 | 51.61023 | 8.61532 | 703 ft | 11 kts | 57° |
| 2026-05-06 15:50 | 51.61065 | 8.61636 | 702 ft | 15 kts | 54° |
| 2026-05-06 15:50 | 51.61110 | 8.61745 | 701 ft | 1 kts | 53° |
| 2026-05-06 15:51 | 51.61159 | 8.61745 | 694 ft | 17 kts | 327° |
| 2026-05-06 15:51 | 51.61240 | 8.61707 | 701 ft | 9 kts | 49° |
| 2026-05-06 15:51 | 51.61297 | 8.61842 | 700 ft | 14 kts | 56° |
| 2026-05-06 15:51 | 51.61317 | 8.61891 | 699 ft | 0 kts | 57° |
| 2026-05-06 15:52 | 51.61353 | 8.61983 | 698 ft | 14 kts | 54° |
| 2026-05-06 15:52 | 51.61390 | 8.62021 | 694 ft | 16 kts | 352° |
| 2026-05-06 15:53 | 51.61438 | 8.61917 | 698 ft | 15 kts | 271° |
| 2026-05-06 15:53 | 51.61439 | 8.61836 | 699 ft | 0 kts | 268° |
| 2026-05-06 15:53 | 51.61419 | 8.61664 | 702 ft | 35 kts | 243° |
| 2026-05-06 15:53 | 51.61165 | 8.61033 | 744 ft | 95 kts | 237° |
| 2026-05-06 15:54 | 51.60582 | 8.60292 | 1043 ft | 127 kts | 181° |
| 2026-05-06 15:54 | 51.59677 | 8.60707 | 1470 ft | 150 kts | 161° |
| 2026-05-06 15:54 | 51.58588 | 8.61348 | 1686 ft | 185 kts | 161° |
| 2026-05-06 15:54 | 51.57345 | 8.62021 | 2047 ft | 189 kts | 163° |
| 2026-05-06 15:55 | 51.56065 | 8.62576 | 2337 ft | 192 kts | 173° |
| 2026-05-06 15:55 | 51.54712 | 8.62385 | 2521 ft | 198 kts | 190° |
| 2026-05-06 15:55 | 51.53314 | 8.61931 | 2657 ft | 204 kts | 197° |
| 2026-05-06 15:55 | 51.51942 | 8.61267 | 2750 ft | 213 kts | 198° |
| 2026-05-06 15:56 | 51.50486 | 8.60533 | 2654 ft | 223 kts | 200° |
| 2026-05-06 15:56 | 51.49043 | 8.59683 | 2767 ft | 218 kts | 204° |
| 2026-05-06 15:56 | 51.47668 | 8.58662 | 2893 ft | 216 kts | 207° |
| 2026-05-06 15:56 | 51.46308 | 8.57475 | 2660 ft | 229 kts | 211° |
| 2026-05-06 15:57 | 51.44959 | 8.56208 | 2801 ft | 221 kts | 213° |
| 2026-05-06 15:57 | 51.43627 | 8.55043 | 2925 ft | 220 kts | 209° |
| 2026-05-06 15:57 | 51.42286 | 8.53842 | 2968 ft | 221 kts | 210° |
| 2026-05-06 15:57 | 51.40922 | 8.52607 | 2859 ft | 228 kts | 212° |
| 2026-05-06 15:58 | 51.39568 | 8.51253 | 2848 ft | 237 kts | 214° |
| 2026-05-06 15:58 | 51.38162 | 8.49742 | 2913 ft | 247 kts | 215° |
| 2026-05-06 15:58 | 51.36745 | 8.48160 | 3051 ft | 251 kts | 216° |
| 2026-05-06 15:58 | 51.35318 | 8.46501 | 3056 ft | 257 kts | 217° |
| 2026-05-06 15:59 | 51.33892 | 8.44758 | 3093 ft | 259 kts | 219° |
| 2026-05-06 15:59 | 51.32465 | 8.42945 | 3062 ft | 262 kts | 220° |
| 2026-05-06 15:59 | 51.31038 | 8.41127 | 2880 ft | 268 kts | 220° |
| 2026-05-06 15:59 | 51.29609 | 8.39250 | 2936 ft | 259 kts | 221° |
| 2026-05-06 16:00 | 51.28231 | 8.37432 | 2992 ft | 252 kts | 220° |
| 2026-05-06 16:00 | 51.26897 | 8.35620 | 2960 ft | 254 kts | 222° |
| 2026-05-06 16:00 | 51.25584 | 8.33680 | 2751 ft | 259 kts | 226° |
| 2026-05-06 16:00 | 51.24313 | 8.31643 | 2621 ft | 260 kts | 226° |
| 2026-05-06 16:01 | 51.23054 | 8.29576 | 2463 ft | 260 kts | 227° |
| 2026-05-06 16:01 | 51.21810 | 8.27475 | 2272 ft | 260 kts | 228° |
| 2026-05-06 16:01 | 51.20605 | 8.25351 | 2265 ft | 254 kts | 229° |
| 2026-05-06 16:01 | 51.19455 | 8.23290 | 2483 ft | 243 kts | 224° |
| 2026-05-06 16:02 | 51.18042 | 8.21932 | 2636 ft | 242 kts | 204° |
| 2026-05-06 16:02 | 51.16520 | 8.20805 | 2801 ft | 240 kts | 207° |
| 2026-05-06 16:02 | 51.15026 | 8.19630 | 2974 ft | 240 kts | 208° |
| 2026-05-06 16:02 | 51.13535 | 8.18368 | 2973 ft | 246 kts | 209° |
| 2026-05-06 16:03 | 51.12025 | 8.17037 | 2937 ft | 250 kts | 211° |
| 2026-05-06 16:03 | 51.10530 | 8.15511 | 2672 ft | 258 kts | 215° |
| 2026-05-06 16:03 | 51.09130 | 8.13918 | 3036 ft | 243 kts | 217° |
| 2026-05-06 16:03 | 51.07772 | 8.12296 | 3106 ft | 244 kts | 218° |
| 2026-05-06 16:04 | 51.06417 | 8.10606 | 3056 ft | 249 kts | 220° |
| 2026-05-06 16:04 | 51.05065 | 8.08866 | 3006 ft | 251 kts | 220° |
| 2026-05-06 16:04 | 51.03713 | 8.07084 | 2896 ft | 255 kts | 221° |
| 2026-05-06 16:04 | 51.02361 | 8.05243 | 2769 ft | 256 kts | 222° |
| 2026-05-06 16:05 | 51.01686 | 8.04300 | 2690 ft | 257 kts | 223° |
| 2026-05-06 16:05 | 51.01310 | 8.03611 | 2916 ft | 241 kts | 242° |
| 2026-05-06 16:06 | 51.00980 | 8.01026 | 2757 ft | 252 kts | 278° |
| 2026-05-06 16:06 | 51.01506 | 7.98381 | 2735 ft | 250 kts | 290° |
| 2026-05-06 16:06 | 51.02090 | 7.95763 | 2604 ft | 254 kts | 290° |
| 2026-05-06 16:06 | 51.02507 | 7.93974 | 2466 ft | 256 kts | 291° |
| 2026-05-06 16:07 | 51.02912 | 7.91280 | 2369 ft | 255 kts | 274° |
| 2026-05-06 16:07 | 51.02852 | 7.88472 | 2254 ft | 252 kts | 267° |
| 2026-05-06 16:07 | 51.02753 | 7.85730 | 2330 ft | 248 kts | 268° |
| 2026-05-06 16:07 | 51.02687 | 7.83164 | 2348 ft | 247 kts | 268° |
| 2026-05-06 16:08 | 51.02636 | 7.80707 | 2523 ft | 242 kts | 269° |
| 2026-05-06 16:08 | 51.02598 | 7.78018 | 2483 ft | 246 kts | 270° |
| 2026-05-06 16:09 | 51.02610 | 7.75287 | 2448 ft | 249 kts | 271° |
| 2026-05-06 16:09 | 51.02640 | 7.72512 | 2306 ft | 252 kts | 270° |
| 2026-05-06 16:09 | 51.02659 | 7.69780 | 2622 ft | 234 kts | 271° |
| 2026-05-06 16:09 | 51.02684 | 7.67242 | 2716 ft | 213 kts | 270° |
| 2026-05-06 16:10 | 51.02660 | 7.65101 | 2770 ft | 167 kts | 268° |
| 2026-05-06 16:10 | 51.02589 | 7.63516 | 2786 ft | 146 kts | 269° |
| 2026-05-06 16:10 | 51.02578 | 7.62062 | 2840 ft | 121 kts | 271° |
| 2026-05-06 16:10 | 51.02576 | 7.60661 | 2533 ft | 127 kts | 254° |
| 2026-05-06 16:11 | 51.02199 | 7.59324 | 2209 ft | 128 kts | 267° |
| 2026-05-06 16:11 | 51.01956 | 7.57917 | 1692 ft | 135 kts | 255° |
| 2026-05-06 16:11 | 51.01737 | 7.56465 | 1427 ft | 130 kts | 260° |
| 2026-05-06 16:11 | 51.01578 | 7.55142 | 1252 ft | 119 kts | 261° |
| 2026-05-06 16:12 | 51.01423 | 7.53790 | 967 ft | 120 kts | 264° |
| 2026-05-06 16:12 | 51.01494 | 7.53017 | 977 ft | 11 kts | 306° |
| 2026-05-06 16:12 | 51.01496 | 7.53013 | 975 ft | 0 kts | 309° |